Weather at Amherst Airport [CLOSED]

Public forecast

Using degrees Celsius for public forecast. Weather courtesy of forecast.io.

Closest aviation weather report (METAR) to Amherst Airport

Closest report is Greater Moncton Roméo LeBlanc International Airport, 25.7 nm (47.6 km) NW.

2024/06/14 13:00 (retrieved 25 minutes ago)

CYQM 141300Z 17010KT 15SM FEW100 BKN260 21/16 A2981 RMK AC1CI7 AC TR SLP095 DENSITY ALT 1100FT

Closest aviation forecast (TAF) to Amherst Airport

Closest forecast is Greater Moncton Roméo LeBlanc International Airport, 25.7 nm (47.6 km) NW.

2024/06/14 12:42 (retrieved 43 minutes ago)

TAF CYQM 141140Z 1412/1512 17008KT P6SM FEW050 BECMG 1412/1414 21012G22KT BECMG 1415/1417 20020G30KT FM142000 20020G30KT P6SM SCT050 FM150000 21012G22KT P6SM BKN050 BECMG 1500/1502 24010KT FM150500 24005KT P6SM BKN020 FM150900 24005KT P6SM -RA OVC010 BECMG 1510/1512 02006KT RMK NXT FCST BY 141800Z